Mulga, Alabama
Current Conditions -  °F | °C
As of 6:16 AM on Sunday 23 Nov 2014 (Local Time) from KBHM Reporting Station
Moderate Rain Moderate Rain  
Wind Chill: 13°   Ceiling: 3500
Heat Index: 13°   Visibility: 3mi
Dew Point: 12°   Wind: 10mph
Humidity: 90%   Direction: 100°E
Pressure: 29.89"   Gusts: 23mph
Location:  33.55°N, 86.97°W
Report Text: KBHM 231216Z 10009G20KT 3SM RA BR SCT011 BKN035 OVC100 13/12 A2989 RMK AO2 RAB09 P0001 T01330117
Loading
Personal Weather Stations






























Interactive Weather Map New forecast layout! Learn more

10-Day Weather Forecast

Advertisements
Track Severe Weather on mobile